createdAt,value
2018-06-23T06:29:29.086Z,24.1
2018-06-23T06:30:32.199Z,22.6
2018-06-23T06:31:35.014Z,18.4
2018-06-23T06:32:37.822Z,22.2
2018-06-23T06:33:40.628Z,22.7
2018-06-23T06:34:43.437Z,21.9
2018-06-23T06:35:46.393Z,21.9
2018-06-23T06:36:49.319Z,21.4
2018-06-23T06:37:51.848Z,20.6
2018-06-23T06:38:54.657Z,21.9
2018-06-23T06:39:57.473Z,21.8
2018-06-23T06:41:00.285Z,21.8
2018-06-23T06:42:02.824Z,21.8
2018-06-23T06:43:05.626Z,21.9
2018-06-23T06:44:08.429Z,21.9
2018-06-23T06:45:10.957Z,21.7
2018-06-23T06:46:13.486Z,19.3
2018-06-23T06:47:16.290Z,21.9
2018-06-23T06:48:19.097Z,20.8
2018-06-23T06:49:21.897Z,20.7
2018-06-23T06:50:24.699Z,20.9
2018-06-23T06:51:27.503Z,20.1
2018-06-23T06:52:30.308Z,20.9
2018-06-23T06:53:33.107Z,21.3
2018-06-23T06:54:35.916Z,21.1
2018-06-23T06:55:38.723Z,20.8
2018-06-23T06:56:41.527Z,20.5
2018-06-23T06:57:44.336Z,21
2018-06-23T06:58:47.148Z,20.3
2018-06-23T06:59:49.959Z,17.4
2018-06-23T07:00:52.495Z,21.1
2018-06-23T07:01:55.313Z,20.9
2018-06-23T07:02:58.128Z,16.5
2018-06-23T07:04:00.932Z,24
2018-06-23T07:05:43.298Z,24.6
2018-06-23T07:06:46.109Z,25.2
2018-06-23T07:07:48.925Z,22.7
2018-06-23T07:09:33.354Z,28.8
2018-06-23T07:10:36.161Z,15.5
2018-06-23T07:11:38.979Z,14.5
2018-06-23T07:12:41.789Z,15.5
2018-06-23T07:13:44.318Z,22.6
2018-06-23T07:14:47.115Z,24.1
2018-06-23T07:15:49.916Z,26.1
2018-06-23T07:16:52.717Z,15.6
2018-06-23T07:17:55.525Z,22.1
2018-06-23T07:18:58.327Z,19.6
2018-06-23T07:20:01.135Z,19.3
2018-06-23T07:21:03.948Z,19.2
2018-06-23T07:22:06.750Z,13
2018-06-23T07:23:09.563Z,16.8
2018-06-23T07:24:12.455Z,16.5
2018-06-23T07:25:15.889Z,15.9
2018-06-23T07:26:18.697Z,15.6
2018-06-23T07:27:21.506Z,16.1
2018-06-23T07:28:24.328Z,16.1
2018-06-23T07:29:27.127Z,16.3
2018-06-23T07:30:29.962Z,16.3
2018-06-23T07:31:32.776Z,15.6
2018-06-23T07:32:35.687Z,15.6
2018-06-23T07:33:38.519Z,16.5
2018-06-23T07:34:41.364Z,15.9
2018-06-23T07:35:44.945Z,16.3
2018-06-23T15:05:51.135Z,12
2018-06-23T15:07:01.279Z,12
2018-06-23T15:08:03.780Z,12
2018-06-23T15:09:06.511Z,12
2018-06-23T15:10:09.233Z,12
2018-06-23T15:11:11.962Z,12
2018-06-23T15:12:14.700Z,12
2018-06-23T15:13:17.160Z,12
2018-06-23T15:14:19.609Z,12
2018-06-23T15:15:22.351Z,12
2018-06-23T15:16:24.552Z,12
2018-06-23T15:17:27.294Z,12
2018-06-23T15:18:30.025Z,12
2018-06-23T15:19:32.752Z,12
2018-06-23T15:20:35.465Z,12
2018-06-23T15:21:38.185Z,12
2018-06-23T15:22:40.918Z,12
2018-06-23T15:23:43.631Z,12
2018-06-23T15:24:46.353Z,12
2018-06-23T15:25:49.074Z,12
2018-06-23T15:26:51.842Z,12
2018-06-23T15:27:54.610Z,12
2018-06-23T15:28:57.171Z,12
2018-06-23T15:29:59.895Z,12
2018-06-23T15:31:02.638Z,12
2018-06-23T15:32:05.360Z,12
2018-06-23T15:33:08.085Z,12
2018-06-23T15:34:10.805Z,12
2018-06-23T15:35:13.546Z,12
2018-06-23T15:36:16.279Z,12
2018-06-23T15:37:19.025Z,12
2018-06-23T15:38:21.769Z,12
2018-06-23T15:39:24.512Z,12
2018-06-23T15:40:27.462Z,12
2018-06-23T15:41:30.337Z,12
2018-06-23T15:42:33.101Z,12
2018-06-23T15:43:35.830Z,12
2018-06-23T15:44:38.571Z,12
2018-06-23T15:45:41.335Z,12
2018-06-23T15:46:44.080Z,12
2018-06-23T15:47:46.535Z,12
2018-06-23T15:48:48.997Z,12
2018-06-23T15:49:51.723Z,12
2018-06-23T15:50:54.450Z,12
2018-06-23T15:51:56.924Z,12
2018-06-23T15:52:59.664Z,12
2018-06-23T15:54:02.496Z,12
2018-06-23T15:55:05.220Z,12
2018-06-23T15:56:07.962Z,12
2018-06-23T15:57:10.716Z,12
2018-06-23T15:58:13.450Z,12
2018-06-23T15:59:16.190Z,12
2018-06-23T16:00:18.925Z,12
2018-06-23T16:01:21.659Z,12
2018-06-23T16:02:24.973Z,12
2018-06-23T16:03:27.837Z,12
2018-06-23T16:04:30.591Z,12
2018-06-23T16:05:32.802Z,12
2018-06-23T16:06:35.541Z,12
2018-06-23T16:07:38.046Z,12
2018-06-23T16:08:40.761Z,12
2018-06-23T16:09:43.503Z,12
2018-06-23T16:10:46.233Z,12
2018-06-23T16:11:48.970Z,12
2018-06-23T16:12:51.744Z,12
2018-06-23T16:13:54.477Z,12
2018-06-23T16:14:57.286Z,12
2018-06-23T16:16:00.611Z,12
2018-06-23T16:17:03.362Z,12
2018-06-23T16:18:05.841Z,12
2018-06-23T16:19:08.304Z,12
2018-06-23T16:20:11.052Z,12
2018-06-23T16:21:13.783Z,12
2018-06-23T16:22:16.509Z,12
2018-06-23T16:23:18.978Z,12
2018-06-23T16:24:21.688Z,12
2018-06-23T16:25:23.845Z,12
2018-06-23T16:26:26.576Z,12
2018-06-23T16:27:29.288Z,12
2018-06-23T16:28:32.034Z,12
2018-06-23T16:29:35.043Z,12
2018-06-23T16:30:37.766Z,12
2018-06-23T16:31:40.241Z,12
2018-06-23T16:32:42.986Z,12
2018-06-23T16:33:45.714Z,12
2018-06-23T16:34:48.556Z,12
2018-06-23T16:35:52.303Z,12
2018-06-23T16:36:55.022Z,12
2018-06-23T16:37:57.751Z,12
2018-06-23T16:39:00.510Z,12
2018-06-23T16:40:03.255Z,12
2018-06-23T16:41:05.974Z,12
2018-06-23T16:42:08.704Z,12
2018-06-23T16:43:11.461Z,12
2018-06-23T16:44:14.181Z,12
2018-06-23T16:45:16.910Z,12
2018-06-23T16:46:19.628Z,12
2018-06-23T16:47:22.340Z,12
2018-06-23T16:48:25.063Z,12
2018-06-23T16:49:27.781Z,12
2018-06-23T16:50:30.530Z,12
2018-06-23T16:51:33.270Z,12
2018-06-23T16:52:36.012Z,12
2018-06-23T16:53:38.942Z,12
2018-06-23T16:54:41.660Z,12
2018-06-23T16:55:44.377Z,12
2018-06-23T16:56:47.120Z,12
2018-06-23T16:57:49.860Z,12
2018-06-23T16:58:52.586Z,12
2018-06-23T16:59:55.336Z,12
2018-06-23T17:00:58.055Z,12
2018-06-23T17:02:00.781Z,12
2018-06-23T17:03:03.517Z,12
2018-06-23T17:04:06.363Z,12
2018-06-23T17:05:09.714Z,12
2018-06-23T17:06:12.429Z,12
2018-06-23T17:07:14.871Z,12
2018-06-23T17:08:17.623Z,12
2018-06-23T17:09:20.377Z,12
2018-06-23T17:10:23.091Z,12
2018-06-23T17:11:25.871Z,12
2018-06-23T17:12:28.803Z,12
2018-06-23T17:13:31.528Z,12
2018-06-23T17:14:34.250Z,12
2018-06-23T17:15:36.989Z,12
2018-06-23T17:16:39.724Z,12
2018-06-23T17:17:42.468Z,12
2018-06-23T17:18:45.191Z,12
2018-06-23T17:19:47.950Z,12
2018-06-23T17:20:50.687Z,12
2018-06-23T17:21:53.422Z,12
2018-06-23T17:22:56.181Z,12
2018-06-23T17:23:58.910Z,12
2018-06-23T17:25:01.630Z,12
2018-06-23T17:26:04.343Z,12
2018-06-23T17:27:07.091Z,12
2018-06-23T17:28:10.039Z,12
2018-06-23T17:29:12.768Z,12
2018-06-23T17:30:15.517Z,12
2018-06-23T17:31:18.234Z,12
2018-06-23T17:32:20.966Z,12
2018-06-23T17:33:23.451Z,12
2018-06-23T17:34:26.189Z,12
2018-06-23T17:35:28.908Z,12
2018-06-23T17:36:31.626Z,12
2018-06-23T17:37:34.351Z,12
2018-06-23T17:38:37.079Z,12
2018-06-23T17:39:39.806Z,12
2018-06-23T17:40:42.522Z,12
2018-06-23T17:41:45.305Z,12
2018-06-23T17:42:48.202Z,12
2018-06-23T17:43:50.940Z,12
2018-06-23T17:44:53.654Z,12
2018-06-23T17:45:56.405Z,12
2018-06-23T17:46:59.136Z,12
2018-06-23T17:48:01.861Z,12
2018-06-23T17:49:04.586Z,12
2018-06-23T17:50:07.318Z,12
2018-06-23T17:51:10.057Z,12
2018-06-23T17:52:12.888Z,12
2018-06-23T17:53:15.629Z,12
2018-06-23T17:54:18.370Z,12
2018-06-23T17:55:21.118Z,12
2018-06-23T17:56:23.607Z,12
2018-06-23T17:57:26.451Z,12
2018-06-23T17:58:29.961Z,12
2018-06-23T17:59:32.683Z,12
2018-06-23T18:00:35.420Z,12
2018-06-23T18:01:38.142Z,12
2018-06-23T18:02:40.881Z,12
2018-06-23T18:03:43.608Z,12
2018-06-23T18:04:46.324Z,12
2018-06-23T18:05:49.047Z,12
2018-06-23T18:06:51.768Z,12
2018-06-23T18:07:54.495Z,12
2018-06-23T18:08:57.228Z,12
2018-06-23T18:10:00.020Z,12
2018-06-23T18:11:02.755Z,12
2018-06-23T18:12:05.714Z,12
2018-06-23T18:13:08.607Z,12
2018-06-23T18:14:11.382Z,12
2018-06-23T18:15:14.117Z,12
2018-06-23T18:16:16.901Z,12
2018-06-23T18:17:19.652Z,12
2018-06-23T18:18:22.359Z,12
2018-06-23T18:19:25.098Z,12
2018-06-23T18:20:27.857Z,12
2018-06-23T18:21:30.986Z,12
2018-06-23T18:22:34.109Z,12
2018-06-23T18:23:37.001Z,12
2018-06-23T18:24:39.480Z,12
2018-06-23T18:25:42.201Z,12
2018-06-23T18:26:44.938Z,12
2018-06-23T18:27:47.660Z,12
2018-06-23T18:28:50.390Z,12
2018-06-23T18:29:53.117Z,12
2018-06-23T18:30:55.859Z,12
2018-06-23T18:31:58.610Z,12
2018-06-23T18:33:01.328Z,12
2018-06-23T18:34:04.048Z,12
2018-06-23T18:35:06.807Z,12
2018-06-23T18:36:09.584Z,12
2018-06-23T18:37:12.510Z,12
2018-06-23T18:38:15.261Z,12
2018-06-23T18:39:17.993Z,12
2018-06-23T18:40:20.713Z,12
2018-06-23T18:41:23.431Z,12
2018-06-23T18:42:26.164Z,12
2018-06-23T18:43:28.884Z,12
2018-06-23T18:44:31.617Z,12
2018-06-23T18:45:34.337Z,12
2018-06-23T18:46:37.069Z,12
2018-06-23T18:47:39.788Z,12
2018-06-23T18:48:42.530Z,12
2018-06-23T18:49:45.259Z,12
2018-06-23T18:50:47.978Z,12
2018-06-23T18:51:50.699Z,12
2018-06-23T18:52:53.440Z,12
2018-06-23T18:53:56.175Z,12
2018-06-23T18:54:58.631Z,12
2018-06-23T18:56:01.493Z,12
2018-06-23T18:57:04.213Z,12
2018-06-23T18:58:06.965Z,12
2018-06-23T18:59:09.676Z,12
2018-06-23T19:00:12.185Z,12
2018-06-23T19:01:14.904Z,12
2018-06-23T19:02:17.648Z,12
2018-06-23T19:03:20.400Z,12
2018-06-23T19:04:23.131Z,12
2018-06-23T19:05:25.868Z,12
2018-06-23T19:06:28.601Z,12
2018-06-23T19:07:31.325Z,12
2018-06-23T19:08:34.036Z,12
2018-06-23T19:09:36.779Z,12
2018-06-23T19:10:39.501Z,12
2018-06-23T19:11:42.242Z,12
2018-06-23T19:12:44.960Z,12
2018-06-23T19:13:47.691Z,12
2018-06-23T19:14:50.411Z,12
2018-06-23T19:15:52.887Z,12
2018-06-23T19:16:55.610Z,12
2018-06-23T19:17:58.354Z,12
2018-06-23T19:19:01.080Z,12
2018-06-23T19:20:03.813Z,12
2018-06-23T19:21:06.537Z,12
2018-06-23T19:22:09.258Z,12
2018-06-23T19:23:11.998Z,12
2018-06-23T19:24:14.727Z,12
2018-06-23T19:25:17.505Z,12
2018-06-23T19:26:20.246Z,12
2018-06-23T19:27:22.969Z,12
2018-06-23T19:28:25.689Z,12
2018-06-23T19:29:28.429Z,12
2018-06-23T19:30:31.168Z,12
2018-06-23T19:31:33.900Z,12
2018-06-23T19:32:36.410Z,12
2018-06-23T19:33:38.880Z,12
2018-06-23T19:34:41.618Z,12
2018-06-23T19:35:44.421Z,12
2018-06-23T19:36:47.669Z,12
2018-06-23T19:37:50.389Z,12
2018-06-23T19:38:53.126Z,12
2018-06-23T19:39:55.860Z,12
2018-06-23T19:40:58.601Z,12
2018-06-23T19:42:01.350Z,12
2018-06-23T19:43:04.115Z,12
2018-06-23T19:44:06.904Z,12
2018-06-23T19:45:10.571Z,12
2018-06-23T19:46:13.829Z,12
2018-06-23T19:47:16.837Z,12
2018-06-23T19:48:20.203Z,12
2018-06-23T19:49:22.951Z,12
2018-06-23T19:50:25.687Z,12
2018-06-23T19:51:28.417Z,12
2018-06-23T19:52:31.190Z,12
2018-06-23T19:53:33.799Z,12
2018-06-23T19:54:36.447Z,12
2018-06-23T19:55:38.938Z,12
2018-06-23T19:56:41.673Z,12
2018-06-23T19:57:44.425Z,12
2018-06-23T19:58:47.171Z,12
2018-06-23T19:59:49.987Z,12
2018-06-23T20:00:52.713Z,12
2018-06-23T20:01:55.445Z,12
2018-06-23T20:02:58.178Z,12
2018-06-23T20:04:00.912Z,12
2018-06-23T20:05:03.668Z,12
2018-06-23T20:06:06.465Z,12
2018-06-23T20:07:09.220Z,12
2018-06-23T20:08:12.003Z,12
2018-06-23T20:09:15.060Z,12
2018-06-23T20:10:17.845Z,12
2018-06-23T20:11:20.574Z,12
2018-06-23T20:12:23.330Z,12
2018-06-23T20:13:26.065Z,12
2018-06-23T20:14:28.813Z,12
2018-06-23T20:15:31.552Z,12
2018-06-23T20:16:34.282Z,12
2018-06-23T20:17:37.310Z,12
2018-06-23T20:18:40.053Z,12
2018-06-23T20:19:42.780Z,12
2018-06-23T20:20:45.497Z,12
2018-06-23T20:21:48.263Z,12
2018-06-23T20:22:50.999Z,12
2018-06-23T20:23:53.723Z,12
2018-06-23T20:24:56.461Z,12
2018-06-23T20:25:59.186Z,12
2018-06-23T20:27:01.921Z,12
2018-06-23T20:28:04.666Z,12
2018-06-23T20:29:07.395Z,12
2018-06-23T20:30:10.141Z,12
2018-06-23T20:31:12.885Z,12
2018-06-23T20:32:15.630Z,12
2018-06-23T20:33:18.115Z,12
2018-06-23T20:34:20.850Z,12
2018-06-23T20:35:23.605Z,12
2018-06-23T20:36:26.354Z,12
2018-06-23T20:37:29.089Z,12
2018-06-23T20:38:31.837Z,12
2018-06-23T20:39:34.313Z,12
2018-06-23T20:40:37.048Z,12
2018-06-23T20:41:39.841Z,12
2018-06-23T20:42:42.840Z,12
2018-06-23T20:43:45.580Z,12
2018-06-23T20:44:48.311Z,12
2018-06-23T20:45:51.032Z,12
2018-06-23T20:46:53.813Z,12
2018-06-23T20:47:56.541Z,12
2018-06-23T20:48:59.004Z,12
2018-06-23T20:50:01.742Z,12
2018-06-23T20:51:04.161Z,12
2018-06-23T20:52:06.887Z,12
2018-06-23T20:53:09.697Z,12
2018-06-23T20:54:13.204Z,12
2018-06-23T20:55:15.937Z,12
2018-06-23T20:56:18.647Z,12
2018-06-23T20:57:21.372Z,12
2018-06-23T20:58:24.111Z,12
2018-06-23T20:59:26.831Z,12
2018-06-23T21:00:29.560Z,12
2018-06-23T21:01:32.311Z,12
2018-06-23T21:02:35.071Z,12
2018-06-23T21:03:37.819Z,12
2018-06-23T21:04:40.553Z,12
2018-06-23T21:05:43.032Z,12
2018-06-23T21:06:45.800Z,12
2018-06-23T21:07:48.560Z,12
2018-06-23T21:08:51.317Z,12
2018-06-23T21:09:53.782Z,12
2018-06-23T21:10:56.499Z,12
2018-06-23T21:11:59.240Z,12
2018-06-23T21:13:01.996Z,12
2018-06-23T21:14:04.727Z,12
2018-06-23T21:15:07.194Z,12
2018-06-23T21:16:09.920Z,12
2018-06-23T21:17:12.661Z,12
2018-06-23T21:18:15.397Z,12
2018-06-23T21:19:18.140Z,12
2018-06-23T21:20:20.869Z,12
2018-06-23T21:21:23.586Z,12
2018-06-23T21:22:26.465Z,12
2018-06-23T21:23:29.220Z,12
2018-06-23T21:24:31.952Z,12
2018-06-23T21:25:34.700Z,12
2018-06-23T21:26:37.436Z,12
2018-06-23T21:27:40.158Z,12
2018-06-23T21:28:42.635Z,12
2018-06-23T21:29:45.374Z,12
2018-06-23T21:30:48.259Z,12
2018-06-23T21:31:51.534Z,12
2018-06-23T21:32:54.272Z,12
2018-06-23T21:33:57.009Z,12
2018-06-23T21:34:59.462Z,12
2018-06-23T21:36:02.193Z,12
2018-06-23T21:37:04.922Z,12
2018-06-23T21:38:07.657Z,12
2018-06-23T21:39:10.387Z,12
2018-06-23T21:40:13.168Z,12
2018-06-23T21:41:16.404Z,12
2018-06-23T21:42:19.147Z,12
2018-06-23T21:43:21.867Z,12
2018-06-23T21:44:24.582Z,12
2018-06-23T21:45:27.323Z,12
2018-06-23T21:46:30.045Z,12
2018-06-23T21:47:32.850Z,12
2018-06-23T21:48:36.260Z,12
2018-06-23T21:49:38.986Z,12
2018-06-23T21:50:41.706Z,12
2018-06-23T21:51:44.437Z,12
2018-06-23T21:52:47.155Z,12
2018-06-23T21:53:49.629Z,12
2018-06-23T21:54:52.357Z,12
2018-06-23T21:55:54.801Z,12
2018-06-23T21:56:57.548Z,12
2018-06-23T21:58:00.279Z,12
2018-06-23T21:59:02.991Z,12
2018-06-23T22:00:05.750Z,12
2018-06-23T22:01:08.471Z,12
2018-06-23T22:02:10.911Z,12
2018-06-23T22:03:13.642Z,12
2018-06-23T22:04:16.383Z,12
2018-06-23T22:05:19.091Z,12
2018-06-23T22:06:21.829Z,12
2018-06-23T22:07:24.551Z,12
2018-06-23T22:08:27.303Z,12
2018-06-23T22:09:30.020Z,12
2018-06-23T22:10:32.744Z,12
2018-06-23T22:11:35.465Z,12
2018-06-23T22:12:38.191Z,12
2018-06-23T22:13:40.909Z,12
2018-06-23T22:14:43.396Z,12
2018-06-23T22:15:46.128Z,12
2018-06-23T22:16:48.854Z,12
2018-06-23T22:17:51.573Z,12
2018-06-23T22:18:54.309Z,12
2018-06-23T22:19:57.021Z,12
2018-06-23T22:20:59.751Z,12
2018-06-23T22:22:02.497Z,12
2018-06-23T22:23:05.218Z,12
2018-06-23T22:24:07.946Z,12
2018-06-23T22:25:10.688Z,12
2018-06-23T22:26:13.429Z,12
2018-06-23T22:27:16.171Z,12
2018-06-23T22:28:18.906Z,12
2018-06-23T22:29:21.658Z,12
2018-06-23T22:30:24.381Z,12
2018-06-23T22:31:26.583Z,12
2018-06-23T22:32:29.311Z,12
2018-06-23T22:33:32.028Z,12
2018-06-23T22:34:34.761Z,12
2018-06-23T22:35:37.481Z,12
2018-06-23T22:36:40.229Z,12
2018-06-23T22:37:42.707Z,12
2018-06-23T22:38:45.430Z,12
2018-06-23T22:39:48.179Z,12
2018-06-23T22:40:50.912Z,12
2018-06-23T22:41:53.663Z,12
2018-06-23T22:42:56.383Z,12
2018-06-23T22:43:59.113Z,12
2018-06-23T22:45:01.830Z,12
2018-06-23T22:46:04.547Z,12
2018-06-23T22:47:07.271Z,12
2018-06-23T22:48:10.151Z,12
2018-06-23T22:49:12.872Z,12
2018-06-23T22:50:15.590Z,12
2018-06-23T22:51:18.300Z,12
2018-06-23T22:52:21.033Z,12
2018-06-23T22:53:23.740Z,12
2018-06-23T22:54:26.480Z,12
2018-06-23T22:55:29.202Z,12
2018-06-23T22:56:31.921Z,12
2018-06-23T22:57:34.656Z,12
2018-06-23T22:58:37.372Z,12
2018-06-23T22:59:40.126Z,12
2018-06-23T23:00:42.856Z,12
2018-06-23T23:01:45.563Z,12
2018-06-23T23:02:48.290Z,12
2018-06-23T23:03:51.028Z,12
2018-06-23T23:04:53.792Z,12
2018-06-23T23:05:56.520Z,12
2018-06-23T23:06:59.241Z,12
2018-06-23T23:08:01.991Z,12
2018-06-23T23:09:04.712Z,12
2018-06-23T23:10:07.431Z,12
2018-06-23T23:11:10.171Z,12
2018-06-23T23:12:12.937Z,12
2018-06-23T23:13:15.783Z,12
2018-06-23T23:14:18.490Z,12
2018-06-23T23:15:21.209Z,12
2018-06-23T23:16:23.933Z,12
2018-06-23T23:17:26.378Z,12
2018-06-23T23:18:29.121Z,12
2018-06-23T23:19:31.833Z,12
2018-06-23T23:20:34.562Z,12
2018-06-23T23:21:37.275Z,12
2018-06-23T23:22:40.038Z,12
2018-06-23T23:23:42.750Z,12
2018-06-23T23:24:45.481Z,12
2018-06-23T23:25:48.212Z,12
2018-06-23T23:26:50.917Z,12
2018-06-23T23:27:53.650Z,12
2018-06-23T23:28:56.362Z,12
2018-06-23T23:29:58.806Z,12
2018-06-23T23:31:01.531Z,12
2018-06-23T23:32:04.260Z,12
2018-06-23T23:33:06.970Z,12
2018-06-23T23:34:09.705Z,12
2018-06-23T23:35:12.409Z,12
2018-06-23T23:36:15.120Z,12
2018-06-23T23:37:17.848Z,12
2018-06-23T23:38:20.563Z,12
2018-06-23T23:39:23.265Z,12
2018-06-23T23:40:25.989Z,12
2018-06-23T23:41:28.749Z,12
2018-06-23T23:42:31.208Z,12
2018-06-23T23:43:33.932Z,12
2018-06-23T23:44:36.660Z,12
2018-06-23T23:45:39.384Z,12
2018-06-23T23:46:41.843Z,12
2018-06-23T23:47:44.559Z,12
2018-06-23T23:48:47.269Z,12
2018-06-23T23:49:49.981Z,12
2018-06-23T23:50:52.450Z,12
2018-06-23T23:51:55.158Z,12
2018-06-23T23:52:57.883Z,12
2018-06-23T23:54:00.610Z,12
2018-06-23T23:55:03.325Z,12
2018-06-23T23:56:06.052Z,12
2018-06-23T23:57:08.759Z,12
2018-06-23T23:58:11.481Z,12
2018-06-23T23:59:14.200Z,12
